createdAt,value
2023-03-15T00:01:24.450Z,70.54
2023-03-15T00:03:51.780Z,70.35
2023-03-15T00:06:18.914Z,70.38
2023-03-15T00:08:48.081Z,70.04
2023-03-15T00:11:17.147Z,70.46
2023-03-15T00:13:45.245Z,70.09
2023-03-15T00:16:17.896Z,70.66
2023-03-15T00:18:48.334Z,71.34
2023-03-15T00:21:15.939Z,70.97
2023-03-15T00:23:43.376Z,70.98
2023-03-15T00:26:10.655Z,71.96
2023-03-15T00:28:38.341Z,72.55
2023-03-15T00:31:13.030Z,72.88
2023-03-15T00:33:41.776Z,73.28
2023-03-15T00:36:11.240Z,73.64
2023-03-15T00:38:40.689Z,74.22
2023-03-15T00:41:10.386Z,74.76
2023-03-15T00:43:38.084Z,75.08
2023-03-15T00:46:06.378Z,76.09
2023-03-15T00:48:37.432Z,76.96
2023-03-15T00:51:14.054Z,77.66
2023-03-15T00:53:43.447Z,78.04
2023-03-15T00:56:14.136Z,78.51
2023-03-15T00:58:42.478Z,79.55
2023-03-15T01:01:15.602Z,80.51
2023-03-15T01:03:43.405Z,81.10
2023-03-15T01:06:16.706Z,81.54
2023-03-15T01:08:44.915Z,81.72
2023-03-15T01:11:15.256Z,83.35
2023-03-15T01:13:42.787Z,83.58
2023-03-15T01:16:12.626Z,83.47
2023-03-15T01:18:41.555Z,84.67
2023-03-15T01:21:11.123Z,85.24
2023-03-15T01:23:38.698Z,86.58
2023-03-15T01:26:11.449Z,87.05
2023-03-15T01:28:39.295Z,87.17
2023-03-15T01:31:07.411Z,87.75
2023-03-15T01:33:34.887Z,87.48
2023-03-15T01:36:07.792Z,87.62
2023-03-15T01:38:36.599Z,88.11
2023-03-15T01:41:04.431Z,88.44
2023-03-15T01:43:33.550Z,88.62
2023-03-15T01:46:07.466Z,89.55
2023-03-15T01:49:01.470Z,89.65
2023-03-15T01:51:40.189Z,89.28
2023-03-15T01:54:27.084Z,89.42
2023-03-15T01:57:15.783Z,90.53
2023-03-15T01:59:48.353Z,90.59
2023-03-15T02:02:15.992Z,90.76
2023-03-15T02:04:51.875Z,90.64
2023-03-15T02:07:23.736Z,90.77
2023-03-15T02:10:09.686Z,90.97
2023-03-15T02:12:43.197Z,90.80
2023-03-15T02:15:11.770Z,90.82
2023-03-15T02:17:42.055Z,90.85
2023-03-15T02:20:40.446Z,91.29
2023-03-15T02:23:15.586Z,90.78
2023-03-15T02:26:30.907Z,90.48
2023-03-15T02:28:59.509Z,90.69
2023-03-15T02:31:26.837Z,90.11
2023-03-15T02:33:56.231Z,90.97
2023-03-15T02:36:29.655Z,91.19
2023-03-15T02:38:57.697Z,91.24
2023-03-15T02:41:37.954Z,91.23
2023-03-15T02:44:28.460Z,91.60
2023-03-15T02:47:00.491Z,91.45
2023-03-15T02:49:33.439Z,91.69
2023-03-15T02:52:01.643Z,92.38
2023-03-15T02:54:29.023Z,92.16
2023-03-15T02:56:56.404Z,91.97
2023-03-15T02:59:24.119Z,91.72
2023-03-15T03:01:51.495Z,91.58
2023-03-15T03:04:18.728Z,91.72
2023-03-15T03:06:46.174Z,91.99
2023-03-15T03:09:17.240Z,91.85
2023-03-15T03:11:44.570Z,91.47
2023-03-15T03:14:14.529Z,92.14
2023-03-15T03:16:43.070Z,91.99
2023-03-15T03:19:14.267Z,92.32
2023-03-15T03:21:45.715Z,92.44
2023-03-15T03:24:16.445Z,92.40
2023-03-15T03:26:46.350Z,92.79
2023-03-15T03:29:18.162Z,93.47
2023-03-15T03:31:47.783Z,93.43
2023-03-15T03:34:15.922Z,94.45
2023-03-15T03:36:44.254Z,95.60
2023-03-15T03:39:14.735Z,95.90
2023-03-15T03:41:43.732Z,96.84
2023-03-15T03:44:12.615Z,97.38
2023-03-15T03:46:41.091Z,97.77
2023-03-15T03:49:08.545Z,97.89
2023-03-15T03:51:36.637Z,97.84
2023-03-15T03:54:07.352Z,98.37
2023-03-15T03:56:34.926Z,98.74
2023-03-15T03:59:02.530Z,99.12
2023-03-15T04:01:43.419Z,100.00
2023-03-15T04:04:14.574Z,100.00
2023-03-15T04:06:46.642Z,100.00
2023-03-15T04:09:18.257Z,100.00
2023-03-15T04:11:48.440Z,100.00
2023-03-15T04:14:17.521Z,100.00
2023-03-15T04:16:47.710Z,100.00
2023-03-15T04:19:18.017Z,100.00
2023-03-15T04:21:47.862Z,100.00
2023-03-15T04:24:36.344Z,100.00
2023-03-15T04:27:09.836Z,100.00
2023-03-15T04:30:05.853Z,100.00
2023-03-15T04:32:45.910Z,100.00
2023-03-15T04:35:27.339Z,100.00
2023-03-15T04:38:27.574Z,100.00
2023-03-15T04:41:11.773Z,100.00
2023-03-15T04:43:57.062Z,99.38
2023-03-15T04:46:58.500Z,97.28
2023-03-15T04:49:53.490Z,94.83
2023-03-15T04:52:47.559Z,93.15
2023-03-15T04:55:35.036Z,92.54
2023-03-15T04:58:15.015Z,92.51
2023-03-15T05:01:01.158Z,93.19
2023-03-15T05:03:58.152Z,92.64
2023-03-15T05:06:54.960Z,92.21
2023-03-15T05:09:47.154Z,92.13
2023-03-15T05:12:35.042Z,92.04
2023-03-15T05:15:17.799Z,91.62
2023-03-15T05:17:58.980Z,90.53
2023-03-15T05:20:50.098Z,90.55
2023-03-15T05:23:37.424Z,88.94
2023-03-15T05:26:25.742Z,88.79
2023-03-15T05:29:13.508Z,87.55
2023-03-15T05:32:05.098Z,86.46
2023-03-15T05:35:12.865Z,85.39
2023-03-15T05:37:49.629Z,85.12
2023-03-15T05:40:17.430Z,83.95
2023-03-15T05:42:59.660Z,83.40
2023-03-15T05:45:50.307Z,82.92
2023-03-15T05:48:30.419Z,83.03
2023-03-15T05:51:05.720Z,82.06
2023-03-15T05:53:51.723Z,82.01
2023-03-15T05:56:51.596Z,80.49
2023-03-15T05:59:37.170Z,80.34
2023-03-15T06:02:22.510Z,80.11
2023-03-15T06:05:05.463Z,78.90
2023-03-15T06:07:33.282Z,78.16
2023-03-15T06:10:01.392Z,77.84
2023-03-15T06:12:29.586Z,76.59
2023-03-15T06:14:57.638Z,76.25
2023-03-15T06:17:25.104Z,75.46
2023-03-15T06:19:53.850Z,74.94
2023-03-15T06:22:22.038Z,74.81
2023-03-15T06:24:55.735Z,75.11
2023-03-15T06:27:24.670Z,75.51
2023-03-15T06:29:55.354Z,75.46
2023-03-15T06:32:24.079Z,75.34
2023-03-15T06:34:51.432Z,73.75
2023-03-15T06:37:34.275Z,72.84
2023-03-15T06:40:11.605Z,73.26
2023-03-15T06:42:41.969Z,71.61
2023-03-15T06:45:12.532Z,72.00
2023-03-15T06:47:39.785Z,69.09
2023-03-15T06:50:07.814Z,66.89
2023-03-15T06:52:35.113Z,65.42
2023-03-15T06:55:02.648Z,63.83
2023-03-15T06:57:30.278Z,60.53
2023-03-15T06:59:57.545Z,58.68
2023-03-15T07:02:25.359Z,57.35
2023-03-15T07:04:53.363Z,57.44
2023-03-15T07:07:21.158Z,59.11
2023-03-15T07:09:48.815Z,61.62
2023-03-15T07:12:17.089Z,62.76
2023-03-15T07:14:47.061Z,62.64
2023-03-15T07:17:14.711Z,62.85
2023-03-15T07:19:55.479Z,62.45
2023-03-15T07:22:24.494Z,62.68
2023-03-15T07:24:51.965Z,63.25
2023-03-15T07:27:19.753Z,63.60
2023-03-15T07:29:47.632Z,64.57
2023-03-15T07:32:15.759Z,65.71
2023-03-15T07:34:43.411Z,66.00
2023-03-15T07:37:11.244Z,64.98
2023-03-15T07:39:39.378Z,63.07
2023-03-15T07:42:07.684Z,61.27
2023-03-15T07:44:40.879Z,59.52
2023-03-15T07:47:08.809Z,58.93
2023-03-15T07:49:36.045Z,58.56
2023-03-15T07:52:03.987Z,57.56
2023-03-15T07:54:32.398Z,55.64
2023-03-15T07:57:01.291Z,54.51
2023-03-15T07:59:29.456Z,55.74
2023-03-15T08:01:56.952Z,55.19
2023-03-15T08:04:24.449Z,56.37
2023-03-15T08:06:53.399Z,56.52
2023-03-15T08:09:21.222Z,56.96
2023-03-15T08:11:49.189Z,56.35
2023-03-15T08:14:16.863Z,56.35
2023-03-15T08:16:44.777Z,54.92
2023-03-15T08:19:13.105Z,54.69
2023-03-15T08:21:45.698Z,54.50
2023-03-15T08:24:13.489Z,51.77
2023-03-15T08:26:43.787Z,51.71
2023-03-15T08:29:11.452Z,50.02
2023-03-15T08:31:39.564Z,48.37
2023-03-15T08:34:07.624Z,47.21
2023-03-15T08:36:35.414Z,46.88
2023-03-15T08:39:03.662Z,46.91
2023-03-15T08:41:31.533Z,46.34
2023-03-15T08:43:59.272Z,46.10
2023-03-15T08:46:28.117Z,43.10
2023-03-15T08:48:55.605Z,42.51
2023-03-15T08:51:25.632Z,41.72
2023-03-15T08:53:53.839Z,42.52
2023-03-15T08:56:21.719Z,42.24
2023-03-15T08:58:49.255Z,41.36
2023-03-15T09:01:17.131Z,41.97
2023-03-15T09:03:44.992Z,42.91
2023-03-15T09:06:13.347Z,42.52
2023-03-15T09:08:42.150Z,41.15
2023-03-15T09:11:09.765Z,40.97
2023-03-15T09:13:37.353Z,39.75
2023-03-15T09:16:05.201Z,38.82
2023-03-15T09:18:34.633Z,38.80
2023-03-15T09:21:02.424Z,38.52
2023-03-15T09:23:30.371Z,37.35
2023-03-15T09:25:58.593Z,35.95
2023-03-15T09:28:26.920Z,36.16
2023-03-15T09:30:54.999Z,35.56
2023-03-15T09:33:23.180Z,34.02
2023-03-15T09:35:54.017Z,33.75
2023-03-15T09:38:24.621Z,32.80
2023-03-15T09:40:58.785Z,33.08
2023-03-15T09:43:40.650Z,32.52
2023-03-15T09:46:19.935Z,31.95
2023-03-15T09:48:56.406Z,31.00
2023-03-15T09:51:53.696Z,31.97
2023-03-15T09:54:27.434Z,30.35
2023-03-15T09:57:05.518Z,30.54
2023-03-15T09:59:37.115Z,30.79
2023-03-15T10:02:24.438Z,30.50
2023-03-15T10:05:01.780Z,29.07
2023-03-15T10:07:29.371Z,29.12
2023-03-15T10:09:59.330Z,28.56
2023-03-15T10:12:41.135Z,28.22
2023-03-15T10:15:33.715Z,28.11
2023-03-15T10:18:21.277Z,27.27
2023-03-15T10:20:58.135Z,26.93
2023-03-15T10:23:45.758Z,25.80
2023-03-15T10:26:19.283Z,25.84
2023-03-15T10:28:47.685Z,24.50
2023-03-15T10:31:29.431Z,25.12
2023-03-15T10:34:01.310Z,23.55
2023-03-15T10:36:29.457Z,23.64
2023-03-15T10:38:58.603Z,23.79
2023-03-15T10:41:44.457Z,23.91
2023-03-15T10:44:15.395Z,22.72
2023-03-15T10:46:43.318Z,23.10
2023-03-15T10:49:16.769Z,23.71
2023-03-15T10:51:48.996Z,21.87
2023-03-15T10:54:22.594Z,22.03
2023-03-15T10:57:14.504Z,21.98
2023-03-15T10:59:59.703Z,22.11
2023-03-15T11:02:27.427Z,21.89
2023-03-15T11:05:09.299Z,23.43
2023-03-15T11:07:39.119Z,23.72
2023-03-15T11:10:08.455Z,25.10
2023-03-15T11:12:37.229Z,25.40
2023-03-15T11:15:14.426Z,25.23
2023-03-15T11:17:46.581Z,24.92
2023-03-15T11:20:37.287Z,23.07
2023-03-15T11:23:26.378Z,23.13
2023-03-15T11:25:59.632Z,24.21
2023-03-15T11:28:35.980Z,24.56
2023-03-15T11:31:05.912Z,24.87
2023-03-15T11:33:39.436Z,24.68
2023-03-15T11:36:14.716Z,25.33
2023-03-15T11:38:45.332Z,25.04
2023-03-15T11:41:43.493Z,25.57
2023-03-15T11:44:49.804Z,25.29
2023-03-15T11:47:28.993Z,26.57
2023-03-15T11:49:58.971Z,26.15
2023-03-15T11:52:29.424Z,26.10
2023-03-15T11:55:06.602Z,26.65
2023-03-15T11:57:38.897Z,28.74
2023-03-15T12:00:27.208Z,28.69
2023-03-15T12:02:57.171Z,28.87
2023-03-15T12:05:46.583Z,28.15
2023-03-15T12:08:51.897Z,28.22
2023-03-15T12:11:22.890Z,29.78
2023-03-15T12:13:59.382Z,30.58
2023-03-15T12:16:35.482Z,30.69
2023-03-15T12:19:11.292Z,30.77
2023-03-15T12:21:47.399Z,32.47
2023-03-15T12:24:23.343Z,35.02
2023-03-15T12:26:59.728Z,34.85
2023-03-15T12:29:29.828Z,33.04
2023-03-15T12:32:03.838Z,34.36
2023-03-15T12:35:17.997Z,35.04
2023-03-15T12:37:52.489Z,36.77
2023-03-15T12:40:21.175Z,37.94
2023-03-15T12:42:48.750Z,37.62
2023-03-15T12:45:17.171Z,38.40
2023-03-15T12:47:50.981Z,38.17
2023-03-15T12:50:40.181Z,38.54
2023-03-15T12:53:20.571Z,39.67
2023-03-15T12:55:50.077Z,40.29
2023-03-15T12:58:21.059Z,40.61
2023-03-15T13:00:55.017Z,40.74
2023-03-15T13:03:26.866Z,42.03
2023-03-15T13:06:22.408Z,43.13
2023-03-15T13:09:12.088Z,43.33
2023-03-15T13:12:12.378Z,43.18
2023-03-15T13:15:04.310Z,42.98
2023-03-15T13:17:54.902Z,41.80
2023-03-15T13:20:25.850Z,42.05
2023-03-15T13:22:58.266Z,41.87
2023-03-15T13:25:55.117Z,43.13
2023-03-15T13:28:25.791Z,43.84
2023-03-15T13:30:55.268Z,44.67
2023-03-15T13:33:25.700Z,44.54
2023-03-15T13:36:01.271Z,43.85
2023-03-15T13:38:30.369Z,42.97
2023-03-15T13:41:03.521Z,43.19
2023-03-15T13:43:36.646Z,44.30
2023-03-15T13:46:04.996Z,44.35
2023-03-15T13:48:36.216Z,44.18
2023-03-15T13:51:21.065Z,43.96
2023-03-15T13:53:53.179Z,43.17
2023-03-15T13:56:37.367Z,41.65
2023-03-15T13:59:12.733Z,42.34
2023-03-15T14:01:43.157Z,42.77
2023-03-15T14:04:17.788Z,43.35
2023-03-15T14:06:46.058Z,43.65
2023-03-15T14:09:28.716Z,44.32
2023-03-15T14:12:06.972Z,45.09
2023-03-15T14:14:39.112Z,46.10
2023-03-15T14:17:26.649Z,46.24
2023-03-15T14:19:57.196Z,46.75
2023-03-15T14:22:25.576Z,47.43
2023-03-15T14:24:54.382Z,48.28
2023-03-15T14:27:28.250Z,48.96
2023-03-15T14:30:01.163Z,49.80
2023-03-15T14:32:38.018Z,49.84
2023-03-15T14:35:26.009Z,48.77
2023-03-15T14:38:16.988Z,49.58
2023-03-15T14:40:45.070Z,50.75
2023-03-15T14:43:12.862Z,50.97
2023-03-15T14:45:42.802Z,51.12
2023-03-15T14:48:14.927Z,51.97
2023-03-15T14:50:46.509Z,52.08
2023-03-15T14:53:18.522Z,52.50
2023-03-15T14:55:46.522Z,53.60
2023-03-15T14:58:18.762Z,54.04
2023-03-15T15:00:50.620Z,54.95
2023-03-15T15:03:30.679Z,55.24
2023-03-15T15:06:00.811Z,55.89
2023-03-15T15:08:29.816Z,56.92
2023-03-15T15:10:58.097Z,56.52
2023-03-15T15:13:28.546Z,57.37
2023-03-15T15:15:58.298Z,58.58
2023-03-15T15:18:29.274Z,59.40
2023-03-15T15:20:59.330Z,60.13
2023-03-15T15:23:32.754Z,60.42
2023-03-15T15:26:03.807Z,59.70
2023-03-15T15:28:37.013Z,60.70
2023-03-15T15:31:07.413Z,61.51
2023-03-15T15:33:39.162Z,62.21
2023-03-15T15:36:12.558Z,63.25
2023-03-15T15:38:41.213Z,63.00
2023-03-15T15:41:26.238Z,63.35
2023-03-15T15:43:54.671Z,65.53
2023-03-15T15:46:24.239Z,66.59
2023-03-15T15:48:52.919Z,64.25
2023-03-15T15:51:50.592Z,66.10
2023-03-15T15:54:22.567Z,66.94
2023-03-15T15:56:53.929Z,65.81
2023-03-15T15:59:22.411Z,64.92
2023-03-15T16:01:59.986Z,69.57
2023-03-15T16:04:29.699Z,68.38
2023-03-15T16:07:04.217Z,68.15
2023-03-15T16:09:36.223Z,68.29
2023-03-15T16:12:13.434Z,69.01
2023-03-15T16:14:41.265Z,72.04
2023-03-15T16:17:15.318Z,73.42
2023-03-15T16:19:42.680Z,72.98
2023-03-15T16:22:10.453Z,72.12
2023-03-15T16:24:39.493Z,76.31
2023-03-15T16:27:08.677Z,76.56
2023-03-15T16:29:46.053Z,79.03
2023-03-15T16:32:33.016Z,80.68
2023-03-15T16:35:15.945Z,81.54
2023-03-15T16:37:45.012Z,82.25
2023-03-15T16:40:27.539Z,84.13
2023-03-15T16:42:55.498Z,90.12
2023-03-15T16:45:23.791Z,88.39
2023-03-15T16:47:51.519Z,88.04
2023-03-15T16:50:19.631Z,86.76
2023-03-15T16:52:50.844Z,90.90
2023-03-15T16:55:24.302Z,89.83
2023-03-15T16:57:51.890Z,92.36
2023-03-15T17:00:20.495Z,94.85
2023-03-15T17:02:50.087Z,95.59
2023-03-15T17:05:20.043Z,94.44
2023-03-15T17:07:52.885Z,94.94
2023-03-15T17:10:20.590Z,94.82
2023-03-15T17:12:48.746Z,97.84
2023-03-15T17:15:20.479Z,97.48
2023-03-15T17:17:48.934Z,97.73
2023-03-15T17:20:21.860Z,97.56
2023-03-15T17:22:49.840Z,100.00
2023-03-15T17:25:17.698Z,100.00
2023-03-15T17:27:46.417Z,100.00
2023-03-15T17:30:24.181Z,100.00
2023-03-15T17:32:51.830Z,100.00
2023-03-15T17:35:20.657Z,100.00
2023-03-15T17:37:48.506Z,100.00
2023-03-15T17:40:27.871Z,100.00
2023-03-15T17:42:57.347Z,100.00
2023-03-15T17:45:27.990Z,100.00
2023-03-15T17:47:56.482Z,100.00
2023-03-15T17:50:28.248Z,100.00
2023-03-15T17:52:58.167Z,100.00
2023-03-15T17:55:27.914Z,100.00
2023-03-15T17:57:55.934Z,100.00
2023-03-15T18:00:24.712Z,100.00
2023-03-15T18:02:55.852Z,100.00
2023-03-15T18:05:28.420Z,100.00
2023-03-15T18:07:59.905Z,100.00
2023-03-15T18:10:34.996Z,100.00
2023-03-15T18:13:03.188Z,100.00
2023-03-15T18:15:31.027Z,100.00
2023-03-15T18:17:58.360Z,100.00
2023-03-15T18:20:26.216Z,100.00
2023-03-15T18:22:53.652Z,100.00
2023-03-15T18:25:25.171Z,100.00
2023-03-15T18:27:53.338Z,100.00
2023-03-15T18:30:23.374Z,100.00
2023-03-15T18:32:52.368Z,100.00
2023-03-15T18:35:23.269Z,100.00
2023-03-15T18:37:50.680Z,100.00
2023-03-15T18:40:19.594Z,100.00
2023-03-15T18:42:47.255Z,100.00
2023-03-15T18:45:23.922Z,100.00
2023-03-15T18:47:51.728Z,100.00
2023-03-15T18:50:19.987Z,100.00
2023-03-15T18:52:47.889Z,100.00
2023-03-15T18:55:18.227Z,100.00
2023-03-15T18:57:46.400Z,100.00
2023-03-15T19:00:24.180Z,100.00
2023-03-15T19:02:53.342Z,100.00
2023-03-15T19:05:20.835Z,100.00
2023-03-15T19:07:51.395Z,100.00
2023-03-15T19:10:20.521Z,100.00
2023-03-15T19:12:48.694Z,100.00
2023-03-15T19:15:17.833Z,100.00
2023-03-15T19:17:47.005Z,100.00
2023-03-15T19:20:17.226Z,100.00
2023-03-15T19:22:45.500Z,100.00
2023-03-15T19:25:14.093Z,100.00
2023-03-15T19:27:42.332Z,100.00
2023-03-15T19:30:12.480Z,100.00
2023-03-15T19:32:42.828Z,100.00
2023-03-15T19:35:10.870Z,100.00
2023-03-15T19:37:38.646Z,100.00
2023-03-15T19:40:09.475Z,100.00
2023-03-15T19:42:40.428Z,100.00
2023-03-15T19:45:08.803Z,100.00
2023-03-15T19:47:36.370Z,100.00
2023-03-15T19:50:04.593Z,100.00
2023-03-15T19:52:33.325Z,100.00
2023-03-15T19:55:01.376Z,100.00
2023-03-15T19:57:28.706Z,100.00
2023-03-15T19:59:56.095Z,100.00
2023-03-15T20:02:23.514Z,100.00
2023-03-15T20:04:51.644Z,100.00
2023-03-15T20:07:18.984Z,100.00
2023-03-15T20:09:46.368Z,100.00
2023-03-15T20:12:13.590Z,100.00
2023-03-15T20:14:41.136Z,100.00
2023-03-15T20:17:08.666Z,100.00
2023-03-15T20:19:37.504Z,100.00
2023-03-15T20:22:07.844Z,100.00
2023-03-15T20:24:37.098Z,100.00
2023-03-15T20:27:04.325Z,100.00
2023-03-15T20:29:32.048Z,100.00
2023-03-15T20:31:59.513Z,100.00
2023-03-15T20:34:27.085Z,100.00
2023-03-15T20:36:54.325Z,100.00
2023-03-15T20:39:24.529Z,100.00
2023-03-15T20:41:52.752Z,100.00
2023-03-15T20:44:20.150Z,100.00
2023-03-15T20:46:47.269Z,100.00
2023-03-15T20:49:15.653Z,100.00
2023-03-15T20:51:42.875Z,100.00
2023-03-15T20:54:10.295Z,100.00
2023-03-15T20:56:37.466Z,100.00
2023-03-15T20:59:04.691Z,100.00
2023-03-15T21:01:32.271Z,100.00
2023-03-15T21:04:00.519Z,100.00
2023-03-15T21:06:27.875Z,100.00
2023-03-15T21:08:55.318Z,100.00
2023-03-15T21:11:22.463Z,100.00
2023-03-15T21:13:49.761Z,100.00
2023-03-15T21:16:16.923Z,100.00
2023-03-15T21:18:45.328Z,100.00
2023-03-15T21:21:12.858Z,100.00
2023-03-15T21:23:40.212Z,100.00
2023-03-15T21:26:11.218Z,100.00
2023-03-15T21:28:39.225Z,100.00
2023-03-15T21:31:07.288Z,100.00
2023-03-15T21:33:34.939Z,100.00
2023-03-15T21:36:02.425Z,100.00
2023-03-15T21:38:32.040Z,100.00
2023-03-15T21:41:00.008Z,100.00
2023-03-15T21:43:29.328Z,100.00
2023-03-15T21:46:05.218Z,100.00
2023-03-15T21:48:34.128Z,100.00
2023-03-15T21:51:02.363Z,100.00
2023-03-15T21:53:30.275Z,100.00
2023-03-15T21:55:59.314Z,100.00
2023-03-15T21:58:28.470Z,100.00
2023-03-15T22:01:06.693Z,100.00
2023-03-15T22:03:35.998Z,100.00
2023-03-15T22:06:03.569Z,100.00
2023-03-15T22:08:30.899Z,100.00
2023-03-15T22:10:59.321Z,100.00
2023-03-15T22:13:27.515Z,100.00
2023-03-15T22:15:54.850Z,100.00
2023-03-15T22:18:23.184Z,100.00
2023-03-15T22:20:51.504Z,100.00
2023-03-15T22:23:19.423Z,100.00
2023-03-15T22:25:46.575Z,100.00
2023-03-15T22:28:14.021Z,100.00
2023-03-15T22:30:42.134Z,100.00
2023-03-15T22:33:09.867Z,100.00
2023-03-15T22:35:37.420Z,100.00
2023-03-15T22:38:10.437Z,100.00
2023-03-15T22:40:39.857Z,100.00
2023-03-15T22:43:08.184Z,100.00
2023-03-15T22:45:36.193Z,100.00
2023-03-15T22:48:03.563Z,100.00
2023-03-15T22:50:31.007Z,100.00
2023-03-15T22:52:58.225Z,100.00
2023-03-15T22:55:25.997Z,100.00
2023-03-15T22:57:54.206Z,100.00
2023-03-15T23:00:22.624Z,100.00
2023-03-15T23:02:50.061Z,100.00
2023-03-15T23:05:19.774Z,100.00
2023-03-15T23:07:47.513Z,100.00
2023-03-15T23:10:14.742Z,100.00
2023-03-15T23:12:42.332Z,100.00
2023-03-15T23:15:10.711Z,100.00
2023-03-15T23:17:38.535Z,100.00
2023-03-15T23:20:07.443Z,100.00
2023-03-15T23:22:34.947Z,100.00
2023-03-15T23:25:03.217Z,100.00
2023-03-15T23:27:30.829Z,100.00
2023-03-15T23:29:58.068Z,100.00
2023-03-15T23:32:27.297Z,100.00
2023-03-15T23:34:54.950Z,100.00
2023-03-15T23:37:23.931Z,100.00
2023-03-15T23:39:53.481Z,100.00
2023-03-15T23:42:25.976Z,100.00
2023-03-15T23:44:58.677Z,100.00
2023-03-15T23:47:26.080Z,100.00
2023-03-15T23:49:53.595Z,100.00
2023-03-15T23:52:25.580Z,100.00
2023-03-15T23:54:54.109Z,100.00
2023-03-15T23:57:22.065Z,100.00
2023-03-15T23:59:51.933Z,100.00
